createdAt,value
2023-04-05T00:00:01.989Z,38.40
2023-04-05T00:10:01.359Z,37.00
2023-04-05T00:20:01.252Z,39.60
2023-04-05T00:30:01.806Z,34.90
2023-04-05T00:40:03.342Z,48.00
2023-04-05T00:50:01.953Z,32.70
2023-04-05T01:00:02.150Z,29.30
2023-04-05T01:10:02.054Z,24.20
2023-04-05T01:20:01.575Z,25.40
2023-04-05T01:30:01.309Z,24.80
2023-04-05T01:40:01.286Z,36.00
2023-04-05T01:50:02.033Z,33.70
2023-04-05T02:00:02.012Z,49.80
2023-04-05T02:10:00.290Z,37.50
2023-04-05T02:20:02.425Z,24.80
2023-04-05T02:30:01.346Z,31.30
2023-04-05T02:40:01.858Z,27.40
2023-04-05T02:50:01.432Z,26.10
2023-04-05T03:00:01.425Z,35.50
2023-04-05T03:10:01.276Z,37.40
2023-04-05T03:20:01.239Z,36.70
2023-04-05T03:30:01.135Z,37.70
2023-04-05T03:40:01.409Z,27.70
2023-04-05T03:50:01.139Z,32.80
2023-04-05T04:00:01.802Z,41.50
2023-04-05T04:10:03.683Z,35.10
2023-04-05T04:20:01.098Z,38.10
2023-04-05T04:30:01.275Z,39.80
2023-04-05T04:40:01.503Z,33.90
2023-04-05T04:50:01.164Z,34.30
2023-04-05T05:00:01.496Z,23.00
2023-04-05T05:10:02.820Z,31.60
2023-04-05T05:20:01.697Z,39.70
2023-04-05T05:30:01.035Z,39.00
2023-04-05T05:40:01.325Z,35.30
2023-04-05T06:00:02.720Z,32.80
2023-04-05T06:10:01.743Z,43.20
2023-04-05T06:20:01.144Z,36.30
2023-04-05T06:30:02.030Z,40.80
2023-04-05T06:40:01.064Z,39.30
2023-04-05T06:50:01.932Z,46.50
2023-04-05T07:00:01.111Z,32.50
2023-04-05T07:20:01.634Z,48.80
2023-04-05T07:30:03.767Z,53.70
2023-04-05T07:40:00.972Z,49.90
2023-04-05T07:50:01.532Z,47.50
2023-04-05T08:00:01.406Z,49.70
2023-04-05T08:10:01.073Z,48.00
2023-04-05T08:20:01.236Z,54.90
2023-04-05T08:30:01.513Z,50.20
2023-04-05T08:40:01.236Z,44.40
2023-04-05T08:50:01.314Z,44.90
2023-04-05T09:00:02.107Z,48.90
2023-04-05T09:10:03.402Z,44.80
2023-04-05T09:20:01.853Z,44.70
2023-04-05T09:30:01.711Z,57.30
2023-04-05T09:40:01.072Z,65.20
2023-04-05T09:50:02.159Z,59.70
2023-04-05T10:00:01.685Z,59.20
2023-04-05T10:10:01.233Z,73.70
2023-04-05T10:20:01.143Z,77.70
2023-04-05T10:30:02.149Z,75.30
2023-04-05T10:40:01.546Z,116.50
2023-04-05T10:50:02.064Z,105.00
2023-04-05T11:00:02.285Z,69.60
2023-04-05T11:10:01.117Z,82.20
2023-04-05T11:20:01.532Z,85.80
2023-04-05T11:30:01.036Z,89.30
2023-04-05T11:40:00.269Z,89.40
2023-04-05T11:50:01.955Z,83.40
2023-04-05T12:00:00.964Z,64.60
2023-04-05T12:10:01.296Z,86.10
2023-04-05T12:20:01.340Z,63.00
2023-04-05T12:30:01.370Z,67.10
2023-04-05T12:40:01.954Z,61.70
2023-04-05T12:50:01.289Z,46.00
2023-04-05T13:00:01.232Z,38.90
2023-04-05T13:10:02.388Z,46.50
2023-04-05T13:20:01.923Z,55.50
2023-04-05T13:30:01.196Z,69.80
2023-04-05T13:40:02.193Z,126.20
2023-04-05T13:50:01.590Z,125.80
2023-04-05T14:00:01.466Z,96.80
2023-04-05T14:10:01.215Z,102.30
2023-04-05T14:20:01.859Z,106.60
2023-04-05T14:30:01.494Z,105.60
2023-04-05T14:40:01.937Z,147.70
2023-04-05T14:50:01.461Z,99.70
2023-04-05T15:00:01.599Z,119.10
2023-04-05T15:10:01.536Z,102.40
2023-04-05T15:20:01.024Z,86.00
2023-04-05T15:30:04.016Z,118.20
2023-04-05T15:40:03.966Z,72.10
2023-04-05T15:50:03.932Z,81.20
2023-04-05T16:00:01.038Z,92.10
2023-04-05T16:10:03.353Z,93.20
2023-04-05T16:20:01.932Z,72.10
2023-04-05T16:30:03.031Z,69.80
2023-04-05T16:40:01.986Z,75.10
2023-04-05T16:50:01.779Z,98.50
2023-04-05T17:00:01.866Z,106.30
2023-04-05T17:10:01.943Z,112.60
2023-04-05T17:20:01.247Z,89.40
2023-04-05T17:30:02.590Z,90.60
2023-04-05T17:40:02.176Z,86.30
2023-04-05T17:50:01.713Z,55.50
2023-04-05T18:00:02.581Z,68.10
2023-04-05T18:10:00.294Z,71.20
2023-04-05T18:20:01.100Z,82.00
2023-04-05T18:30:01.300Z,65.30
2023-04-05T18:40:02.627Z,50.70
2023-04-05T18:50:01.414Z,49.50
2023-04-05T19:00:02.329Z,71.40
2023-04-05T19:10:02.172Z,65.50
2023-04-05T19:20:02.271Z,41.60
2023-04-05T19:30:01.614Z,48.40
2023-04-05T19:40:02.906Z,45.30
2023-04-05T19:50:01.156Z,71.50
2023-04-05T20:00:01.049Z,80.70
2023-04-05T20:10:03.276Z,98.50
2023-04-05T20:20:01.270Z,61.60
2023-04-05T20:30:01.758Z,86.50
2023-04-05T20:40:01.080Z,55.90
2023-04-05T20:50:01.450Z,55.40
2023-04-05T21:00:02.137Z,29.80
2023-04-05T21:10:01.276Z,40.50
2023-04-05T21:20:01.471Z,44.70
2023-04-05T21:30:02.026Z,29.80
2023-04-05T21:40:01.397Z,36.00
2023-04-05T21:50:01.145Z,30.40
2023-04-05T22:00:02.084Z,39.90
2023-04-05T22:10:01.095Z,32.60
2023-04-05T22:20:02.380Z,38.30
2023-04-05T22:30:01.277Z,37.50
2023-04-05T22:50:01.230Z,36.50
2023-04-05T23:00:01.246Z,37.70
2023-04-05T23:10:02.331Z,36.90
2023-04-05T23:20:00.991Z,38.30
2023-04-05T23:30:01.999Z,35.30
2023-04-05T23:40:02.023Z,33.60
2023-04-05T23:50:01.937Z,40.00
